sensor_id;sensor_type;location;lat;lon;timestamp;pressure;altitude;pressure_sealevel;temperature;humidity
48115;BME280;33903;44.704;10.448;2024-03-29T00:01:21;99674.03;;;10.84;96.40
48115;BME280;33903;44.704;10.448;2024-03-29T00:04:25;99672.00;;;11.39;94.15
48115;BME280;33903;44.704;10.448;2024-03-29T00:07:30;99671.22;;;11.46;93.53
48115;BME280;33903;44.704;10.448;2024-03-29T00:10:34;99667.97;;;10.99;94.76
48115;BME280;33903;44.704;10.448;2024-03-29T00:13:38;99668.44;;;10.77;95.41
48115;BME280;33903;44.704;10.448;2024-03-29T00:16:43;99659.84;;;10.91;94.92
48115;BME280;33903;44.704;10.448;2024-03-29T00:19:47;99664.31;;;10.83;95.13
48115;BME280;33903;44.704;10.448;2024-03-29T00:22:52;99673.50;;;10.63;95.89
48115;BME280;33903;44.704;10.448;2024-03-29T00:25:57;99687.84;;;10.71;95.82
48115;BME280;33903;44.704;10.448;2024-03-29T00:29:05;99697.97;;;10.77;95.75
48115;BME280;33903;44.704;10.448;2024-03-29T00:32:10;99695.28;;;10.77;95.25
48115;BME280;33903;44.704;10.448;2024-03-29T00:35:15;99688.38;;;10.92;94.28
48115;BME280;33903;44.704;10.448;2024-03-29T00:38:19;99697.59;;;11.07;93.98
48115;BME280;33903;44.704;10.448;2024-03-29T00:41:23;99694.16;;;11.15;93.52
48115;BME280;33903;44.704;10.448;2024-03-29T00:44:28;99689.28;;;11.36;92.26
48115;BME280;33903;44.704;10.448;2024-03-29T00:47:33;99680.81;;;11.49;91.76
48115;BME280;33903;44.704;10.448;2024-03-29T00:50:37;99686.44;;;11.38;91.74
48115;BME280;33903;44.704;10.448;2024-03-29T00:53:43;99696.19;;;11.21;92.06
48115;BME280;33903;44.704;10.448;2024-03-29T00:56:47;99697.13;;;10.77;93.80
48115;BME280;33903;44.704;10.448;2024-03-29T00:59:52;99702.25;;;10.70;94.52
48115;BME280;33903;44.704;10.448;2024-03-29T01:02:57;99700.94;;;10.74;94.36
48115;BME280;33903;44.704;10.448;2024-03-29T01:06:03;99704.66;;;10.91;93.56
48115;BME280;33903;44.704;10.448;2024-03-29T01:09:07;99704.66;;;10.91;93.24
48115;BME280;33903;44.704;10.448;2024-03-29T01:12:15;99705.47;;;10.91;92.57
48115;BME280;33903;44.704;10.448;2024-03-29T01:15:20;99714.78;;;10.97;92.35
48115;BME280;33903;44.704;10.448;2024-03-29T01:18:25;99709.03;;;11.09;92.31
48115;BME280;33903;44.704;10.448;2024-03-29T01:21:32;99715.34;;;11.00;91.72
48115;BME280;33903;44.704;10.448;2024-03-29T01:24:38;99721.81;;;10.80;91.88
48115;BME280;33903;44.704;10.448;2024-03-29T01:27:43;99710.78;;;10.83;91.61
48115;BME280;33903;44.704;10.448;2024-03-29T01:30:53;99730.81;;;10.71;92.26
48115;BME280;33903;44.704;10.448;2024-03-29T01:34:00;99732.09;;;10.85;91.65
48115;BME280;33903;44.704;10.448;2024-03-29T01:37:06;99739.56;;;10.91;91.44
48115;BME280;33903;44.704;10.448;2024-03-29T01:40:11;99746.25;;;11.04;90.76
48115;BME280;33903;44.704;10.448;2024-03-29T01:43:16;99745.72;;;11.01;90.40
48115;BME280;33903;44.704;10.448;2024-03-29T01:46:24;99754.84;;;11.08;90.41
48115;BME280;33903;44.704;10.448;2024-03-29T01:49:30;99773.81;;;10.79;90.80
48115;BME280;33903;44.704;10.448;2024-03-29T01:52:34;99761.47;;;10.69;91.67
48115;BME280;33903;44.704;10.448;2024-03-29T01:55:38;99767.22;;;10.74;91.39
48115;BME280;33903;44.704;10.448;2024-03-29T01:58:44;99775.56;;;10.71;91.04
48115;BME280;33903;44.704;10.448;2024-03-29T02:01:49;99779.06;;;10.81;90.29
48115;BME280;33903;44.704;10.448;2024-03-29T02:04:53;99767.75;;;10.77;89.73
48115;BME280;33903;44.704;10.448;2024-03-29T02:07:59;99771.91;;;10.89;89.69
48115;BME280;33903;44.704;10.448;2024-03-29T02:11:04;99769.34;;;10.97;88.96
48115;BME280;33903;44.704;10.448;2024-03-29T02:14:08;99767.41;;;10.90;89.13
48115;BME280;33903;44.704;10.448;2024-03-29T02:17:13;99773.94;;;10.60;90.72
48115;BME280;33903;44.704;10.448;2024-03-29T02:20:18;99779.63;;;11.02;89.30
48115;BME280;33903;44.704;10.448;2024-03-29T02:23:29;99762.19;;;11.06;89.11
48115;BME280;33903;44.704;10.448;2024-03-29T02:26:35;99761.31;;;11.15;89.13
48115;BME280;33903;44.704;10.448;2024-03-29T02:29:45;99762.75;;;11.09;90.14
48115;BME280;33903;44.704;10.448;2024-03-29T02:32:50;99754.91;;;11.34;89.58
48115;BME280;33903;44.704;10.448;2024-03-29T02:35:54;99764.84;;;11.16;89.53
48115;BME280;33903;44.704;10.448;2024-03-29T02:38:59;99777.34;;;11.25;90.00
48115;BME280;33903;44.704;10.448;2024-03-29T02:42:03;99767.53;;;11.16;90.37
48115;BME280;33903;44.704;10.448;2024-03-29T02:45:08;99778.91;;;10.55;92.35
48115;BME280;33903;44.704;10.448;2024-03-29T02:48:12;99754.72;;;10.28;94.57
48115;BME280;33903;44.704;10.448;2024-03-29T02:51:17;99771.47;;;10.49;93.76
48115;BME280;33903;44.704;10.448;2024-03-29T02:54:23;99774.72;;;10.43;93.89
48115;BME280;33903;44.704;10.448;2024-03-29T02:57:27;99788.53;;;10.48;93.41
48115;BME280;33903;44.704;10.448;2024-03-29T03:00:31;99787.19;;;10.62;92.54
48115;BME280;33903;44.704;10.448;2024-03-29T03:03:36;99789.34;;;10.58;91.65
48115;BME280;33903;44.704;10.448;2024-03-29T03:06:41;99787.72;;;10.38;91.69
48115;BME280;33903;44.704;10.448;2024-03-29T03:09:45;99802.16;;;10.27;91.29
48115;BME280;33903;44.704;10.448;2024-03-29T03:13:09;99805.56;;;10.29;92.08
48115;BME280;33903;44.704;10.448;2024-03-29T03:16:13;99797.78;;;10.63;91.07
48115;BME280;33903;44.704;10.448;2024-03-29T03:19:18;99818.56;;;10.88;90.69
48115;BME280;33903;44.704;10.448;2024-03-29T03:22:22;99813.09;;;11.07;89.89
48115;BME280;33903;44.704;10.448;2024-03-29T03:25:27;99815.03;;;11.33;88.66
48115;BME280;33903;44.704;10.448;2024-03-29T03:28:32;99814.88;;;11.34;88.75
48115;BME280;33903;44.704;10.448;2024-03-29T03:31:36;99803.91;;;11.45;88.07
48115;BME280;33903;44.704;10.448;2024-03-29T03:34:41;99809.38;;;10.91;90.58
48115;BME280;33903;44.704;10.448;2024-03-29T03:37:46;99800.22;;;11.29;90.31
48115;BME280;33903;44.704;10.448;2024-03-29T03:40:50;99805.97;;;11.51;89.27
48115;BME280;33903;44.704;10.448;2024-03-29T03:43:54;99802.81;;;11.56;89.36
48115;BME280;33903;44.704;10.448;2024-03-29T03:46:59;99814.34;;;11.66;88.38
48115;BME280;33903;44.704;10.448;2024-03-29T03:50:03;99817.88;;;11.66;87.90
48115;BME280;33903;44.704;10.448;2024-03-29T03:53:08;99829.50;;;11.85;88.37
48115;BME280;33903;44.704;10.448;2024-03-29T03:56:13;99833.00;;;11.85;87.82
48115;BME280;33903;44.704;10.448;2024-03-29T03:59:17;99840.34;;;11.75;88.04
48115;BME280;33903;44.704;10.448;2024-03-29T04:02:21;99853.91;;;11.91;88.38
48115;BME280;33903;44.704;10.448;2024-03-29T04:05:26;99855.47;;;11.94;87.67
48115;BME280;33903;44.704;10.448;2024-03-29T04:08:30;99837.72;;;11.83;88.01
48115;BME280;33903;44.704;10.448;2024-03-29T04:11:36;99822.13;;;11.87;87.58
48115;BME280;33903;44.704;10.448;2024-03-29T04:14:48;99838.25;;;11.69;87.10
48115;BME280;33903;44.704;10.448;2024-03-29T04:18:13;99826.53;;;11.70;88.18
48115;BME280;33903;44.704;10.448;2024-03-29T04:21:18;99847.84;;;11.89;87.55
48115;BME280;33903;44.704;10.448;2024-03-29T04:24:22;99858.44;;;11.73;88.66
48115;BME280;33903;44.704;10.448;2024-03-29T04:27:27;99843.06;;;11.65;87.91
48115;BME280;33903;44.704;10.448;2024-03-29T04:30:31;99852.13;;;11.47;88.39
48115;BME280;33903;44.704;10.448;2024-03-29T04:33:36;99844.75;;;11.49;87.74
48115;BME280;33903;44.704;10.448;2024-03-29T04:36:40;99850.28;;;11.30;88.34
48115;BME280;33903;44.704;10.448;2024-03-29T04:39:45;99848.09;;;11.16;88.63
48115;BME280;33903;44.704;10.448;2024-03-29T04:42:50;99851.22;;;11.11;87.75
48115;BME280;33903;44.704;10.448;2024-03-29T04:46:08;99857.53;;;10.65;87.73
48115;BME280;33903;44.704;10.448;2024-03-29T04:49:30;99866.47;;;10.56;87.40
48115;BME280;33903;44.704;10.448;2024-03-29T04:52:38;99865.09;;;10.42;87.69
48115;BME280;33903;44.704;10.448;2024-03-29T04:55:43;99873.56;;;10.38;88.06
48115;BME280;33903;44.704;10.448;2024-03-29T04:58:50;99877.09;;;10.48;87.77
48115;BME280;33903;44.704;10.448;2024-03-29T05:01:55;99862.19;;;10.26;87.80
48115;BME280;33903;44.704;10.448;2024-03-29T05:05:00;99880.81;;;10.09;88.85
48115;BME280;33903;44.704;10.448;2024-03-29T05:08:05;99898.72;;;9.99;89.40
48115;BME280;33903;44.704;10.448;2024-03-29T05:11:09;99906.63;;;10.00;89.42
48115;BME280;33903;44.704;10.448;2024-03-29T05:14:20;99917.66;;;10.07;89.88
48115;BME280;33903;44.704;10.448;2024-03-29T05:17:25;99912.84;;;9.91;89.99
48115;BME280;33903;44.704;10.448;2024-03-29T05:20:31;99923.56;;;10.01;90.97
48115;BME280;33903;44.704;10.448;2024-03-29T05:23:36;99923.56;;;10.01;91.56
48115;BME280;33903;44.704;10.448;2024-03-29T05:26:40;99913.97;;;9.98;92.01
48115;BME280;33903;44.704;10.448;2024-03-29T05:29:45;99922.16;;;9.97;92.31
48115;BME280;33903;44.704;10.448;2024-03-29T05:32:50;99934.44;;;10.28;90.92
48115;BME280;33903;44.704;10.448;2024-03-29T05:35:55;99933.31;;;10.11;92.41
48115;BME280;33903;44.704;10.448;2024-03-29T05:38:59;99929.63;;;10.03;93.01
48115;BME280;33903;44.704;10.448;2024-03-29T05:42:04;99936.28;;;10.18;92.31
48115;BME280;33903;44.704;10.448;2024-03-29T05:45:26;99935.41;;;10.08;93.46
48115;BME280;33903;44.704;10.448;2024-03-29T05:48:30;99929.78;;;10.11;93.81
48115;BME280;33903;44.704;10.448;2024-03-29T05:51:35;99944.16;;;9.91;94.48
48115;BME280;33903;44.704;10.448;2024-03-29T05:54:44;99967.31;;;10.01;95.48
48115;BME280;33903;44.704;10.448;2024-03-29T05:57:48;99948.69;;;10.38;94.29
48115;BME280;33903;44.704;10.448;2024-03-29T06:00:53;99923.03;;;10.16;95.13
48115;BME280;33903;44.704;10.448;2024-03-29T06:03:57;99924.25;;;10.03;96.43
48115;BME280;33903;44.704;10.448;2024-03-29T06:07:08;99916.38;;;10.30;96.28
48115;BME280;33903;44.704;10.448;2024-03-29T06:10:12;99913.56;;;10.22;96.38
48115;BME280;33903;44.704;10.448;2024-03-29T06:13:19;99916.38;;;10.20;97.24
48115;BME280;33903;44.704;10.448;2024-03-29T06:16:42;99927.81;;;10.41;96.72
48115;BME280;33903;44.704;10.448;2024-03-29T06:20:06;99921.13;;;10.55;96.52
48115;BME280;33903;44.704;10.448;2024-03-29T06:23:11;99921.97;;;10.56;96.69
48115;BME280;33903;44.704;10.448;2024-03-29T06:26:15;99935.38;;;10.65;97.26
48115;BME280;33903;44.704;10.448;2024-03-29T06:29:19;99936.63;;;10.71;97.20
48115;BME280;33903;44.704;10.448;2024-03-29T06:32:24;99948.31;;;10.79;97.34
48115;BME280;33903;44.704;10.448;2024-03-29T06:35:29;99946.81;;;11.04;96.59
48115;BME280;33903;44.704;10.448;2024-03-29T06:38:34;99950.88;;;11.18;95.50
48115;BME280;33903;44.704;10.448;2024-03-29T06:41:39;99954.25;;;11.20;97.17
48115;BME280;33903;44.704;10.448;2024-03-29T06:44:43;99953.34;;;11.29;97.27
48115;BME280;33903;44.704;10.448;2024-03-29T06:47:48;99963.00;;;11.49;96.63
48115;BME280;33903;44.704;10.448;2024-03-29T06:50:52;99970.03;;;11.59;97.00
48115;BME280;33903;44.704;10.448;2024-03-29T06:54:00;99981.47;;;11.61;97.19
48115;BME280;33903;44.704;10.448;2024-03-29T06:57:05;99991.63;;;11.67;96.61
48115;BME280;33903;44.704;10.448;2024-03-29T07:00:11;99996.28;;;11.65;96.88
48115;BME280;33903;44.704;10.448;2024-03-29T07:03:16;99997.91;;;11.58;97.03
48115;BME280;33903;44.704;10.448;2024-03-29T07:06:22;99967.88;;;11.36;98.06
48115;BME280;33903;44.704;10.448;2024-03-29T07:09:27;99991.72;;;11.48;98.03
48115;BME280;33903;44.704;10.448;2024-03-29T07:12:31;100005.38;;;11.64;97.37
48115;BME280;33903;44.704;10.448;2024-03-29T07:15:37;99969.47;;;11.29;98.97
48115;BME280;33903;44.704;10.448;2024-03-29T07:18:42;99965.06;;;11.37;99.13
48115;BME280;33903;44.704;10.448;2024-03-29T07:21:46;99972.47;;;11.53;97.91
48115;BME280;33903;44.704;10.448;2024-03-29T07:24:51;99959.97;;;11.61;97.57
48115;BME280;33903;44.704;10.448;2024-03-29T07:27:55;99972.53;;;11.70;96.73
48115;BME280;33903;44.704;10.448;2024-03-29T07:31:05;99976.38;;;11.86;95.96
48115;BME280;33903;44.704;10.448;2024-03-29T07:34:13;99976.50;;;11.94;95.87
48115;BME280;33903;44.704;10.448;2024-03-29T07:37:17;99986.63;;;12.17;94.04
48115;BME280;33903;44.704;10.448;2024-03-29T07:40:22;99989.00;;;12.03;95.19
48115;BME280;33903;44.704;10.448;2024-03-29T07:43:37;99999.72;;;11.95;95.47
48115;BME280;33903;44.704;10.448;2024-03-29T07:46:42;99977.81;;;11.90;95.64
48115;BME280;33903;44.704;10.448;2024-03-29T07:49:50;99987.16;;;11.86;95.11
48115;BME280;33903;44.704;10.448;2024-03-29T07:52:54;99995.75;;;11.71;95.68
48115;BME280;33903;44.704;10.448;2024-03-29T07:55:58;100000.53;;;11.78;95.72
48115;BME280;33903;44.704;10.448;2024-03-29T07:59:04;99998.81;;;11.77;96.22
48115;BME280;33903;44.704;10.448;2024-03-29T08:02:08;100000.19;;;11.81;96.28
48115;BME280;33903;44.704;10.448;2024-03-29T08:05:13;99998.59;;;11.70;96.60
48115;BME280;33903;44.704;10.448;2024-03-29T08:08:17;100004.38;;;11.93;96.20
48115;BME280;33903;44.704;10.448;2024-03-29T08:11:22;100005.41;;;12.27;94.61
48115;BME280;33903;44.704;10.448;2024-03-29T08:14:27;100002.56;;;12.46;93.16
48115;BME280;33903;44.704;10.448;2024-03-29T08:17:32;100005.16;;;12.20;94.37
48115;BME280;33903;44.704;10.448;2024-03-29T08:20:36;99979.88;;;12.13;93.94
48115;BME280;33903;44.704;10.448;2024-03-29T08:23:42;99990.09;;;11.92;96.19
48115;BME280;33903;44.704;10.448;2024-03-29T08:26:51;99993.56;;;12.02;95.33
48115;BME280;33903;44.704;10.448;2024-03-29T08:29:55;99999.31;;;12.43;94.23
48115;BME280;33903;44.704;10.448;2024-03-29T08:33:01;100007.31;;;12.34;93.42
48115;BME280;33903;44.704;10.448;2024-03-29T08:36:07;100020.38;;;12.65;93.42
48115;BME280;33903;44.704;10.448;2024-03-29T08:39:15;100019.38;;;12.30;94.74
48115;BME280;33903;44.704;10.448;2024-03-29T08:42:20;100026.06;;;12.62;94.35
48115;BME280;33903;44.704;10.448;2024-03-29T08:45:25;100037.16;;;12.76;92.64
48115;BME280;33903;44.704;10.448;2024-03-29T08:48:30;100049.59;;;12.77;92.71
48115;BME280;33903;44.704;10.448;2024-03-29T08:51:34;100047.06;;;12.76;92.31
48115;BME280;33903;44.704;10.448;2024-03-29T08:54:38;100032.56;;;12.51;92.36
48115;BME280;33903;44.704;10.448;2024-03-29T08:57:43;100041.22;;;12.80;93.00
48115;BME280;33903;44.704;10.448;2024-03-29T09:00:55;100062.28;;;12.85;91.66
48115;BME280;33903;44.704;10.448;2024-03-29T09:04:00;100063.16;;;12.68;92.75
48115;BME280;33903;44.704;10.448;2024-03-29T09:07:05;100056.41;;;13.07;91.47
48115;BME280;33903;44.704;10.448;2024-03-29T09:10:10;100063.78;;;13.05;91.11
48115;BME280;33903;44.704;10.448;2024-03-29T09:13:15;100057.84;;;13.19;90.65
48115;BME280;33903;44.704;10.448;2024-03-29T09:16:19;100053.72;;;13.33;90.13
48115;BME280;33903;44.704;10.448;2024-03-29T09:19:24;100038.00;;;13.28;89.66
48115;BME280;33903;44.704;10.448;2024-03-29T09:22:29;100037.38;;;13.34;89.63
48115;BME280;33903;44.704;10.448;2024-03-29T09:25:34;100037.16;;;13.53;89.38
48115;BME280;33903;44.704;10.448;2024-03-29T09:28:39;100046.44;;;13.59;89.32
48115;BME280;33903;44.704;10.448;2024-03-29T09:31:44;100051.44;;;13.88;88.24
48115;BME280;33903;44.704;10.448;2024-03-29T09:34:49;100049.91;;;13.77;87.82
48115;BME280;33903;44.704;10.448;2024-03-29T09:37:54;100052.31;;;13.88;88.02
48115;BME280;33903;44.704;10.448;2024-03-29T09:41:21;100057.41;;;13.99;87.53
48115;BME280;33903;44.704;10.448;2024-03-29T09:44:33;100057.19;;;13.93;87.78
48115;BME280;33903;44.704;10.448;2024-03-29T09:47:41;100061.84;;;14.16;86.77
48115;BME280;33903;44.704;10.448;2024-03-29T09:50:47;100054.84;;;14.48;86.02
48115;BME280;33903;44.704;10.448;2024-03-29T09:53:53;100047.25;;;14.43;85.40
48115;BME280;33903;44.704;10.448;2024-03-29T09:56:59;100055.22;;;14.61;84.22
48115;BME280;33903;44.704;10.448;2024-03-29T10:00:05;100043.81;;;14.25;85.16
48115;BME280;33903;44.704;10.448;2024-03-29T10:03:10;100035.44;;;14.52;84.88
48115;BME280;33903;44.704;10.448;2024-03-29T10:06:18;100034.09;;;14.64;85.17
48115;BME280;33903;44.704;10.448;2024-03-29T10:09:23;100036.44;;;14.59;84.62
48115;BME280;33903;44.704;10.448;2024-03-29T10:12:31;100036.81;;;14.72;84.59
48115;BME280;33903;44.704;10.448;2024-03-29T10:15:35;100025.66;;;14.75;84.96
48115;BME280;33903;44.704;10.448;2024-03-29T10:18:43;100028.84;;;14.79;84.74
48115;BME280;33903;44.704;10.448;2024-03-29T10:21:48;100029.38;;;14.90;84.27
48115;BME280;33903;44.704;10.448;2024-03-29T10:24:53;100036.13;;;14.62;85.29
48115;BME280;33903;44.704;10.448;2024-03-29T10:27:58;100039.69;;;14.63;85.78
48115;BME280;33903;44.704;10.448;2024-03-29T10:31:04;100035.38;;;14.28;87.26
48115;BME280;33903;44.704;10.448;2024-03-29T10:34:09;100028.28;;;14.27;87.18
48115;BME280;33903;44.704;10.448;2024-03-29T10:37:15;100027.34;;;14.44;87.08
48115;BME280;33903;44.704;10.448;2024-03-29T10:40:21;100017.56;;;14.51;86.26
48115;BME280;33903;44.704;10.448;2024-03-29T10:43:29;100015.84;;;14.74;85.85
48115;BME280;33903;44.704;10.448;2024-03-29T10:46:36;100016.72;;;14.83;86.05
48115;BME280;33903;44.704;10.448;2024-03-29T10:49:43;100011.47;;;15.06;85.46
48115;BME280;33903;44.704;10.448;2024-03-29T10:52:49;100007.38;;;15.10;86.30
48115;BME280;33903;44.704;10.448;2024-03-29T10:55:56;100010.47;;;14.90;86.07
48115;BME280;33903;44.704;10.448;2024-03-29T10:59:12;100019.53;;;15.22;85.61
48115;BME280;33903;44.704;10.448;2024-03-29T11:05:53;100024.22;;;15.52;84.68
48115;BME280;33903;44.704;10.448;2024-03-29T11:09:00;100016.00;;;15.68;84.13
48115;BME280;33903;44.704;10.448;2024-03-29T11:12:06;100009.53;;;16.16;82.74
48115;BME280;33903;44.704;10.448;2024-03-29T11:15:27;100010.03;;;16.65;80.43
48115;BME280;33903;44.704;10.448;2024-03-29T11:18:32;100005.53;;;16.49;81.40
48115;BME280;33903;44.704;10.448;2024-03-29T11:21:38;100012.56;;;16.44;81.88
48115;BME280;33903;44.704;10.448;2024-03-29T11:24:44;100003.81;;;16.79;80.92
48115;BME280;33903;44.704;10.448;2024-03-29T11:27:48;99999.25;;;16.79;80.21
48115;BME280;33903;44.704;10.448;2024-03-29T11:30:57;99996.47;;;16.87;79.91
48115;BME280;33903;44.704;10.448;2024-03-29T11:34:08;99982.63;;;16.60;81.76
48115;BME280;33903;44.704;10.448;2024-03-29T11:37:14;99976.50;;;16.66;80.61
48115;BME280;33903;44.704;10.448;2024-03-29T11:40:19;99974.00;;;16.79;81.35
48115;BME280;33903;44.704;10.448;2024-03-29T11:43:24;99973.19;;;16.93;80.38
48115;BME280;33903;44.704;10.448;2024-03-29T11:46:30;99976.22;;;17.27;79.91
48115;BME280;33903;44.704;10.448;2024-03-29T11:49:39;99960.44;;;16.79;81.01
48115;BME280;33903;44.704;10.448;2024-03-29T11:52:43;99965.22;;;16.91;80.81
48115;BME280;33903;44.704;10.448;2024-03-29T11:55:48;99953.63;;;16.68;82.57
48115;BME280;33903;44.704;10.448;2024-03-29T11:58:59;99954.03;;;16.95;82.10
48115;BME280;33903;44.704;10.448;2024-03-29T12:02:09;99947.31;;;16.90;82.35
48115;BME280;33903;44.704;10.448;2024-03-29T12:05:17;99946.38;;;16.98;82.31
48115;BME280;33903;44.704;10.448;2024-03-29T12:08:22;99939.63;;;17.09;82.28
48115;BME280;33903;44.704;10.448;2024-03-29T12:11:26;99930.47;;;17.24;82.07
48115;BME280;33903;44.704;10.448;2024-03-29T12:14:34;99932.03;;;17.33;81.83
48115;BME280;33903;44.704;10.448;2024-03-29T12:17:40;99927.03;;;17.81;80.03
48115;BME280;33903;44.704;10.448;2024-03-29T12:20:48;99927.53;;;18.05;79.08
48115;BME280;33903;44.704;10.448;2024-03-29T12:23:54;99920.03;;;18.07;79.28
48115;BME280;33903;44.704;10.448;2024-03-29T12:26:59;99911.13;;;18.13;78.76
48115;BME280;33903;44.704;10.448;2024-03-29T12:30:04;99923.72;;;18.42;78.57
48115;BME280;33903;44.704;10.448;2024-03-29T12:33:12;99926.16;;;18.37;78.79
48115;BME280;33903;44.704;10.448;2024-03-29T12:36:23;99928.72;;;18.39;78.51
48115;BME280;33903;44.704;10.448;2024-03-29T12:39:30;99926.16;;;18.37;78.00
48115;BME280;33903;44.704;10.448;2024-03-29T12:42:38;99916.59;;;18.62;77.61
48115;BME280;33903;44.704;10.448;2024-03-29T12:45:45;99916.06;;;18.73;78.05
48115;BME280;33903;44.704;10.448;2024-03-29T12:48:57;99920.34;;;18.89;77.52
48115;BME280;33903;44.704;10.448;2024-03-29T12:52:05;99916.28;;;19.06;76.59
48115;BME280;33903;44.704;10.448;2024-03-29T12:55:09;99912.13;;;19.10;76.72
48115;BME280;33903;44.704;10.448;2024-03-29T12:58:15;99900.00;;;19.13;77.13
48115;BME280;33903;44.704;10.448;2024-03-29T13:01:22;99897.72;;;19.16;76.98
48115;BME280;33903;44.704;10.448;2024-03-29T13:04:27;99891.03;;;19.19;77.29
48115;BME280;33903;44.704;10.448;2024-03-29T13:07:32;99887.88;;;19.15;77.21
48115;BME280;33903;44.704;10.448;2024-03-29T13:10:37;99879.50;;;19.17;77.33
48115;BME280;33903;44.704;10.448;2024-03-29T13:13:43;99884.59;;;19.26;77.11
48115;BME280;33903;44.704;10.448;2024-03-29T13:16:48;99885.66;;;19.32;77.10
48115;BME280;33903;44.704;10.448;2024-03-29T13:19:53;99895.81;;;19.51;76.85
48115;BME280;33903;44.704;10.448;2024-03-29T13:22:58;99893.56;;;19.61;76.46
48115;BME280;33903;44.704;10.448;2024-03-29T13:26:03;99888.97;;;19.68;76.14
48115;BME280;33903;44.704;10.448;2024-03-29T13:29:09;99885.22;;;19.69;76.15
48115;BME280;33903;44.704;10.448;2024-03-29T13:32:17;99891.91;;;19.67;76.46
48115;BME280;33903;44.704;10.448;2024-03-29T13:35:22;99884.78;;;19.66;76.55
48115;BME280;33903;44.704;10.448;2024-03-29T13:38:27;99888.97;;;19.68;76.92
48115;BME280;33903;44.704;10.448;2024-03-29T13:41:31;99882.34;;;19.90;76.05
48115;BME280;33903;44.704;10.448;2024-03-29T13:44:36;99883.00;;;20.05;75.95
48115;BME280;33903;44.704;10.448;2024-03-29T13:47:42;99893.72;;;20.07;76.11
48115;BME280;33903;44.704;10.448;2024-03-29T13:50:46;99888.66;;;20.04;76.19
48115;BME280;33903;44.704;10.448;2024-03-29T13:53:51;99888.66;;;20.10;76.00
48115;BME280;33903;44.704;10.448;2024-03-29T13:56:55;99884.88;;;19.98;76.11
48115;BME280;33903;44.704;10.448;2024-03-29T14:00:00;99881.75;;;20.08;76.12
48115;BME280;33903;44.704;10.448;2024-03-29T14:03:05;99884.47;;;20.08;76.46
48115;BME280;33903;44.704;10.448;2024-03-29T14:06:10;99876.47;;;19.93;76.46
48115;BME280;33903;44.704;10.448;2024-03-29T14:09:15;99872.25;;;19.78;78.05
48115;BME280;33903;44.704;10.448;2024-03-29T14:12:20;99868.47;;;19.79;77.71
48115;BME280;33903;44.704;10.448;2024-03-29T14:15:29;99863.44;;;19.69;78.46
48115;BME280;33903;44.704;10.448;2024-03-29T14:18:33;99867.41;;;19.67;78.42
48115;BME280;33903;44.704;10.448;2024-03-29T14:21:41;99869.84;;;19.48;78.94
48115;BME280;33903;44.704;10.448;2024-03-29T14:24:46;99872.22;;;19.24;80.30
48115;BME280;33903;44.704;10.448;2024-03-29T14:27:50;99869.72;;;19.29;79.75
48115;BME280;33903;44.704;10.448;2024-03-29T14:31:06;99867.41;;;19.26;79.79
48115;BME280;33903;44.704;10.448;2024-03-29T14:34:12;99871.03;;;19.33;80.26
48115;BME280;33903;44.704;10.448;2024-03-29T14:37:17;99866.59;;;19.25;80.13
48115;BME280;33903;44.704;10.448;2024-03-29T14:40:22;99868.25;;;19.26;80.57
48115;BME280;33903;44.704;10.448;2024-03-29T14:43:26;99854.13;;;19.44;79.80
48115;BME280;33903;44.704;10.448;2024-03-29T14:46:35;99855.59;;;19.40;79.39
48115;BME280;33903;44.704;10.448;2024-03-29T14:49:40;99862.19;;;19.24;79.51
48115;BME280;33903;44.704;10.448;2024-03-29T14:52:46;99867.31;;;19.06;80.06
48115;BME280;33903;44.704;10.448;2024-03-29T14:55:50;99871.88;;;18.99;80.42
48115;BME280;33903;44.704;10.448;2024-03-29T14:58:55;99871.81;;;18.86;80.94
48115;BME280;33903;44.704;10.448;2024-03-29T15:01:59;99872.91;;;18.64;81.50
48115;BME280;33903;44.704;10.448;2024-03-29T15:05:04;99875.03;;;18.68;81.41
48115;BME280;33903;44.704;10.448;2024-03-29T15:08:10;99863.84;;;18.84;81.12
48115;BME280;33903;44.704;10.448;2024-03-29T15:11:20;99870.16;;;18.92;80.93
48115;BME280;33903;44.704;10.448;2024-03-29T15:14:26;99869.84;;;18.73;81.77
48115;BME280;33903;44.704;10.448;2024-03-29T15:17:33;99865.53;;;18.58;82.31
48115;BME280;33903;44.704;10.448;2024-03-29T15:20:38;99866.25;;;18.66;81.85
48115;BME280;33903;44.704;10.448;2024-03-29T15:23:42;99873.06;;;18.56;82.18
48115;BME280;33903;44.704;10.448;2024-03-29T15:26:46;99867.38;;;18.51;82.26
48115;BME280;33903;44.704;10.448;2024-03-29T15:29:54;99868.72;;;18.40;82.64
48115;BME280;33903;44.704;10.448;2024-03-29T15:32:59;99873.91;;;18.35;82.86
48115;BME280;33903;44.704;10.448;2024-03-29T15:36:04;99879.28;;;18.29;82.89
48115;BME280;33903;44.704;10.448;2024-03-29T15:39:10;99876.44;;;18.37;82.92
48115;BME280;33903;44.704;10.448;2024-03-29T15:42:19;99873.84;;;18.29;83.10
48115;BME280;33903;44.704;10.448;2024-03-29T15:45:24;99882.50;;;18.17;83.63
48115;BME280;33903;44.704;10.448;2024-03-29T15:48:29;99882.06;;;18.14;83.99
48115;BME280;33903;44.704;10.448;2024-03-29T15:51:34;99879.75;;;18.11;84.33
48115;BME280;33903;44.704;10.448;2024-03-29T15:54:38;99884.41;;;18.17;83.93
48115;BME280;33903;44.704;10.448;2024-03-29T15:57:43;99889.44;;;18.20;84.11
48115;BME280;33903;44.704;10.448;2024-03-29T16:00:48;99890.22;;;18.14;84.33
48115;BME280;33903;44.704;10.448;2024-03-29T16:03:53;99890.66;;;17.96;84.80
48115;BME280;33903;44.704;10.448;2024-03-29T16:06:57;99892.81;;;18.01;85.26
48115;BME280;33903;44.704;10.448;2024-03-29T16:10:02;99898.94;;;17.88;85.75
48115;BME280;33903;44.704;10.448;2024-03-29T16:13:07;99897.53;;;17.92;85.74